sensor_id;sensor_type;location;lat;lon;timestamp;temperature;humidity
28845;DHT22;15976;47.938;7.758;2022-11-04T00:00:47;12.00;88.30
28845;DHT22;15976;47.938;7.758;2022-11-04T00:03:14;12.00;88.60
28845;DHT22;15976;47.938;7.758;2022-11-04T00:05:41;12.00;88.80
28845;DHT22;15976;47.938;7.758;2022-11-04T00:08:08;12.00;89.10
28845;DHT22;15976;47.938;7.758;2022-11-04T00:10:59;12.00;89.40
28845;DHT22;15976;47.938;7.758;2022-11-04T00:13:45;12.00;89.60
28845;DHT22;15976;47.938;7.758;2022-11-04T00:16:13;12.00;89.80
28845;DHT22;15976;47.938;7.758;2022-11-04T00:19:00;12.00;90.00
28845;DHT22;15976;47.938;7.758;2022-11-04T00:21:27;12.00;90.00
28845;DHT22;15976;47.938;7.758;2022-11-04T00:24:13;12.00;90.00
28845;DHT22;15976;47.938;7.758;2022-11-04T00:27:17;12.00;89.80
28845;DHT22;15976;47.938;7.758;2022-11-04T00:30:06;12.00;89.60
28845;DHT22;15976;47.938;7.758;2022-11-04T00:32:34;12.00;89.40
28845;DHT22;15976;47.938;7.758;2022-11-04T00:35:21;12.00;89.30
28845;DHT22;15976;47.938;7.758;2022-11-04T00:37:48;11.90;88.90
28845;DHT22;15976;47.938;7.758;2022-11-04T00:40:15;11.90;88.90
28845;DHT22;15976;47.938;7.758;2022-11-04T00:42:44;11.90;89.00
28845;DHT22;15976;47.938;7.758;2022-11-04T00:45:11;11.90;89.20
28845;DHT22;15976;47.938;7.758;2022-11-04T00:47:38;11.90;89.30
28845;DHT22;15976;47.938;7.758;2022-11-04T00:50:08;11.90;89.50
28845;DHT22;15976;47.938;7.758;2022-11-04T00:52:35;11.90;89.60
28845;DHT22;15976;47.938;7.758;2022-11-04T00:55:02;11.90;89.50
28845;DHT22;15976;47.938;7.758;2022-11-04T00:57:29;11.90;89.60
28845;DHT22;15976;47.938;7.758;2022-11-04T00:59:56;11.90;89.60
28845;DHT22;15976;47.938;7.758;2022-11-04T01:02:25;11.80;89.60
28845;DHT22;15976;47.938;7.758;2022-11-04T01:04:52;11.80;89.40
28845;DHT22;15976;47.938;7.758;2022-11-04T01:07:19;11.80;89.30
28845;DHT22;15976;47.938;7.758;2022-11-04T01:09:48;11.80;89.20
28845;DHT22;15976;47.938;7.758;2022-11-04T01:12:15;11.80;89.10
28845;DHT22;15976;47.938;7.758;2022-11-04T01:14:42;11.80;88.90
28845;DHT22;15976;47.938;7.758;2022-11-04T01:17:12;11.70;88.90
28845;DHT22;15976;47.938;7.758;2022-11-04T01:19:39;11.70;88.80
28845;DHT22;15976;47.938;7.758;2022-11-04T01:22:06;11.70;88.80
28845;DHT22;15976;47.938;7.758;2022-11-04T01:24:33;11.70;88.90
28845;DHT22;15976;47.938;7.758;2022-11-04T01:27:00;11.70;88.80
28845;DHT22;15976;47.938;7.758;2022-11-04T01:29:30;11.60;88.60
28845;DHT22;15976;47.938;7.758;2022-11-04T01:31:57;11.70;88.50
28845;DHT22;15976;47.938;7.758;2022-11-04T01:34:24;11.60;88.50
28845;DHT22;15976;47.938;7.758;2022-11-04T01:36:51;11.60;88.50
28845;DHT22;15976;47.938;7.758;2022-11-04T01:39:18;11.60;88.60
28845;DHT22;15976;47.938;7.758;2022-11-04T01:41:45;11.60;88.60
28845;DHT22;15976;47.938;7.758;2022-11-04T01:52:36;11.50;88.60
28845;DHT22;15976;47.938;7.758;2022-11-04T01:55:12;11.50;88.50
28845;DHT22;15976;47.938;7.758;2022-11-04T01:57:41;11.60;88.60
28845;DHT22;15976;47.938;7.758;2022-11-04T02:00:11;11.50;88.50
28845;DHT22;15976;47.938;7.758;2022-11-04T02:03:03;11.50;88.40
28845;DHT22;15976;47.938;7.758;2022-11-04T02:05:32;11.60;88.40
28845;DHT22;15976;47.938;7.758;2022-11-04T02:08:01;11.50;88.30
28845;DHT22;15976;47.938;7.758;2022-11-04T02:10:30;11.60;88.40
28845;DHT22;15976;47.938;7.758;2022-11-04T02:13:01;11.50;88.30
28845;DHT22;15976;47.938;7.758;2022-11-04T02:29:38;11.50;87.90
28845;DHT22;15976;47.938;7.758;2022-11-04T02:32:15;11.50;87.90
28845;DHT22;15976;47.938;7.758;2022-11-04T02:35:00;11.50;87.80
28845;DHT22;15976;47.938;7.758;2022-11-04T02:38:16;11.50;87.70
28845;DHT22;15976;47.938;7.758;2022-11-04T02:46:44;11.50;88.20
28845;DHT22;15976;47.938;7.758;2022-11-04T02:51:25;11.50;88.50
28845;DHT22;15976;47.938;7.758;2022-11-04T02:54:10;11.60;88.50
28845;DHT22;15976;47.938;7.758;2022-11-04T02:56:41;11.60;88.40
28845;DHT22;15976;47.938;7.758;2022-11-04T02:59:15;11.60;88.20
28845;DHT22;15976;47.938;7.758;2022-11-04T03:01:45;11.60;88.00
28845;DHT22;15976;47.938;7.758;2022-11-04T03:04:15;11.60;87.90
28845;DHT22;15976;47.938;7.758;2022-11-04T03:06:46;11.60;87.80
28845;DHT22;15976;47.938;7.758;2022-11-04T03:09:15;11.50;87.80
28845;DHT22;15976;47.938;7.758;2022-11-04T03:11:46;11.50;87.70
28845;DHT22;15976;47.938;7.758;2022-11-04T03:14:23;11.50;87.70
28845;DHT22;15976;47.938;7.758;2022-11-04T03:17:00;11.50;87.50
28845;DHT22;15976;47.938;7.758;2022-11-04T03:22:11;11.50;87.20
28845;DHT22;15976;47.938;7.758;2022-11-04T03:24:41;11.50;87.10
28845;DHT22;15976;47.938;7.758;2022-11-04T03:33:10;11.40;87.10
28845;DHT22;15976;47.938;7.758;2022-11-04T03:35:40;11.40;87.10
28845;DHT22;15976;47.938;7.758;2022-11-04T03:38:07;11.40;87.10
28845;DHT22;15976;47.938;7.758;2022-11-04T03:40:34;11.40;87.10
28845;DHT22;15976;47.938;7.758;2022-11-04T03:45:36;11.40;87.00
28845;DHT22;15976;47.938;7.758;2022-11-04T03:48:05;11.30;86.80
28845;DHT22;15976;47.938;7.758;2022-11-04T03:50:41;11.30;86.80
28845;DHT22;15976;47.938;7.758;2022-11-04T03:53:09;11.40;87.50
28845;DHT22;15976;47.938;7.758;2022-11-04T04:04:29;11.30;86.60
28845;DHT22;15976;47.938;7.758;2022-11-04T04:07:16;11.30;86.60
28845;DHT22;15976;47.938;7.758;2022-11-04T04:09:57;11.20;86.40
28845;DHT22;15976;47.938;7.758;2022-11-04T04:12:34;11.20;86.30
28845;DHT22;15976;47.938;7.758;2022-11-04T04:17:54;11.20;86.20
28845;DHT22;15976;47.938;7.758;2022-11-04T04:20:26;11.20;86.20
28845;DHT22;15976;47.938;7.758;2022-11-04T04:23:07;11.20;86.20
28845;DHT22;15976;47.938;7.758;2022-11-04T04:25:58;11.20;86.20
28845;DHT22;15976;47.938;7.758;2022-11-04T04:28:45;11.20;86.20
28845;DHT22;15976;47.938;7.758;2022-11-04T04:31:15;11.10;86.10
28845;DHT22;15976;47.938;7.758;2022-11-04T04:34:05;11.20;86.10
28845;DHT22;15976;47.938;7.758;2022-11-04T04:36:42;11.20;86.00
28845;DHT22;15976;47.938;7.758;2022-11-04T04:39:11;11.20;86.00
28845;DHT22;15976;47.938;7.758;2022-11-04T04:41:57;11.20;85.80
28845;DHT22;15976;47.938;7.758;2022-11-04T04:44:42;11.20;85.80
28845;DHT22;15976;47.938;7.758;2022-11-04T04:47:39;11.20;85.70
28845;DHT22;15976;47.938;7.758;2022-11-04T04:50:08;11.20;85.60
28845;DHT22;15976;47.938;7.758;2022-11-04T04:52:41;11.20;85.40
28845;DHT22;15976;47.938;7.758;2022-11-04T04:55:09;11.30;85.30
28845;DHT22;15976;47.938;7.758;2022-11-04T04:57:36;11.20;85.20
28845;DHT22;15976;47.938;7.758;2022-11-04T05:00:05;11.30;85.20
28845;DHT22;15976;47.938;7.758;2022-11-04T05:02:33;11.20;84.90
28845;DHT22;15976;47.938;7.758;2022-11-04T05:05:00;11.30;85.00
28845;DHT22;15976;47.938;7.758;2022-11-04T05:07:27;11.30;84.80
28845;DHT22;15976;47.938;7.758;2022-11-04T05:09:54;11.30;84.80
28845;DHT22;15976;47.938;7.758;2022-11-04T05:12:21;11.30;84.80
28845;DHT22;15976;47.938;7.758;2022-11-04T05:14:48;11.30;84.80
28845;DHT22;15976;47.938;7.758;2022-11-04T05:17:15;11.30;84.80
28845;DHT22;15976;47.938;7.758;2022-11-04T05:19:42;11.30;84.80
28845;DHT22;15976;47.938;7.758;2022-11-04T05:22:10;11.30;84.70
28845;DHT22;15976;47.938;7.758;2022-11-04T05:24:39;11.30;84.60
28845;DHT22;15976;47.938;7.758;2022-11-04T05:27:17;11.30;84.60
28845;DHT22;15976;47.938;7.758;2022-11-04T05:29:47;11.30;84.20
28845;DHT22;15976;47.938;7.758;2022-11-04T05:32:14;11.30;84.20
28845;DHT22;15976;47.938;7.758;2022-11-04T05:34:41;11.30;84.90
28845;DHT22;15976;47.938;7.758;2022-11-04T05:37:08;11.30;84.00
28845;DHT22;15976;47.938;7.758;2022-11-04T05:39:36;11.30;84.00
28845;DHT22;15976;47.938;7.758;2022-11-04T05:42:10;11.30;84.00
28845;DHT22;15976;47.938;7.758;2022-11-04T05:44:51;11.30;83.70
28845;DHT22;15976;47.938;7.758;2022-11-04T05:47:30;11.30;83.70
28845;DHT22;15976;47.938;7.758;2022-11-04T05:50:03;11.30;83.80
28845;DHT22;15976;47.938;7.758;2022-11-04T05:53:05;11.30;83.30
28845;DHT22;15976;47.938;7.758;2022-11-04T05:56:01;11.30;83.00
28845;DHT22;15976;47.938;7.758;2022-11-04T05:58:56;11.30;83.00
28845;DHT22;15976;47.938;7.758;2022-11-04T06:01:56;11.30;82.90
28845;DHT22;15976;47.938;7.758;2022-11-04T06:04:29;11.20;82.70
28845;DHT22;15976;47.938;7.758;2022-11-04T06:06:56;11.20;82.70
28845;DHT22;15976;47.938;7.758;2022-11-04T06:09:55;11.20;82.50
28845;DHT22;15976;47.938;7.758;2022-11-04T06:12:32;11.20;82.40
28845;DHT22;15976;47.938;7.758;2022-11-04T06:15:26;11.10;82.40
28845;DHT22;15976;47.938;7.758;2022-11-04T06:18:18;11.10;82.10
28845;DHT22;15976;47.938;7.758;2022-11-04T06:21:06;11.20;82.40
28845;DHT22;15976;47.938;7.758;2022-11-04T06:23:42;11.10;82.00
28845;DHT22;15976;47.938;7.758;2022-11-04T06:26:30;11.10;82.00
28845;DHT22;15976;47.938;7.758;2022-11-04T06:29:10;11.10;82.00
28845;DHT22;15976;47.938;7.758;2022-11-04T06:31:45;11.10;81.80
28845;DHT22;15976;47.938;7.758;2022-11-04T06:34:25;11.10;81.60
28845;DHT22;15976;47.938;7.758;2022-11-04T06:37:14;11.10;81.50
28845;DHT22;15976;47.938;7.758;2022-11-04T06:39:55;11.10;81.50
28845;DHT22;15976;47.938;7.758;2022-11-04T06:42:44;11.10;81.20
28845;DHT22;15976;47.938;7.758;2022-11-04T06:45:30;11.10;81.20
28845;DHT22;15976;47.938;7.758;2022-11-04T06:48:26;11.10;81.20
28845;DHT22;15976;47.938;7.758;2022-11-04T06:51:04;11.20;81.30
28845;DHT22;15976;47.938;7.758;2022-11-04T06:53:36;11.20;81.20
28845;DHT22;15976;47.938;7.758;2022-11-04T06:56:41;11.20;81.20
28845;DHT22;15976;47.938;7.758;2022-11-04T06:59:22;11.30;80.90
28845;DHT22;15976;47.938;7.758;2022-11-04T07:01:53;11.30;80.90
28845;DHT22;15976;47.938;7.758;2022-11-04T07:04:28;11.30;80.80
28845;DHT22;15976;47.938;7.758;2022-11-04T07:06:58;11.30;80.60
28845;DHT22;15976;47.938;7.758;2022-11-04T07:09:25;11.30;80.70
28845;DHT22;15976;47.938;7.758;2022-11-04T07:11:51;11.30;81.30
28845;DHT22;15976;47.938;7.758;2022-11-04T07:14:19;11.40;80.40
28845;DHT22;15976;47.938;7.758;2022-11-04T07:17:23;11.40;80.40
28845;DHT22;15976;47.938;7.758;2022-11-04T07:20:06;11.50;80.30
28845;DHT22;15976;47.938;7.758;2022-11-04T07:23:55;11.50;80.30
28845;DHT22;15976;47.938;7.758;2022-11-04T07:27:41;11.60;80.60
28845;DHT22;15976;47.938;7.758;2022-11-04T07:30:20;11.70;80.70
28845;DHT22;15976;47.938;7.758;2022-11-04T07:42:05;11.90;80.80
28845;DHT22;15976;47.938;7.758;2022-11-04T07:46:11;12.00;81.10
28845;DHT22;15976;47.938;7.758;2022-11-04T07:53:06;12.20;80.40
28845;DHT22;15976;47.938;7.758;2022-11-04T07:56:06;12.20;80.40
28845;DHT22;15976;47.938;7.758;2022-11-04T07:58:34;12.30;80.60
28845;DHT22;15976;47.938;7.758;2022-11-04T08:04:36;12.40;79.90
28845;DHT22;15976;47.938;7.758;2022-11-04T08:11:28;12.50;79.60
28845;DHT22;15976;47.938;7.758;2022-11-04T08:14:45;12.50;79.90
28845;DHT22;15976;47.938;7.758;2022-11-04T08:21:50;12.70;79.80
28845;DHT22;15976;47.938;7.758;2022-11-04T08:27:56;12.80;79.50
28845;DHT22;15976;47.938;7.758;2022-11-04T08:31:03;12.80;79.80
28845;DHT22;15976;47.938;7.758;2022-11-04T08:38:15;12.90;79.30
28845;DHT22;15976;47.938;7.758;2022-11-04T08:41:29;13.00;79.30
28845;DHT22;15976;47.938;7.758;2022-11-04T08:53:37;13.20;78.80
28845;DHT22;15976;47.938;7.758;2022-11-04T08:56:32;13.40;79.10
28845;DHT22;15976;47.938;7.758;2022-11-04T08:59:00;13.50;78.20
28845;DHT22;15976;47.938;7.758;2022-11-04T09:01:29;13.60;78.20
28845;DHT22;15976;47.938;7.758;2022-11-04T09:13:28;13.70;77.70
28845;DHT22;15976;47.938;7.758;2022-11-04T09:24:22;14.00;78.20
28845;DHT22;15976;47.938;7.758;2022-11-04T09:27:26;14.10;78.80
28845;DHT22;15976;47.938;7.758;2022-11-04T09:33:57;14.30;78.50
28845;DHT22;15976;47.938;7.758;2022-11-04T09:36:24;14.60;79.40
28845;DHT22;15976;47.938;7.758;2022-11-04T09:39:07;14.70;79.10
28845;DHT22;15976;47.938;7.758;2022-11-04T09:49:04;15.20;77.70
28845;DHT22;15976;47.938;7.758;2022-11-04T10:11:52;15.50;74.10
28845;DHT22;15976;47.938;7.758;2022-11-04T10:22:32;15.10;72.60
28845;DHT22;15976;47.938;7.758;2022-11-04T10:25:21;15.00;72.60
28845;DHT22;15976;47.938;7.758;2022-11-04T10:27:49;14.90;71.70
28845;DHT22;15976;47.938;7.758;2022-11-04T10:30:24;14.80;71.80
28845;DHT22;15976;47.938;7.758;2022-11-04T10:33:21;14.70;71.50
28845;DHT22;15976;47.938;7.758;2022-11-04T10:35:57;14.60;71.60
28845;DHT22;15976;47.938;7.758;2022-11-04T10:38:35;14.60;71.60
28845;DHT22;15976;47.938;7.758;2022-11-04T10:41:29;14.60;71.50
28845;DHT22;15976;47.938;7.758;2022-11-04T10:51:56;14.60;71.50
28845;DHT22;15976;47.938;7.758;2022-11-04T10:54:25;14.70;71.90
28845;DHT22;15976;47.938;7.758;2022-11-04T10:56:54;14.70;72.20
28845;DHT22;15976;47.938;7.758;2022-11-04T10:59:58;14.90;72.40
28845;DHT22;15976;47.938;7.758;2022-11-04T11:13:40;15.20;71.70
28845;DHT22;15976;47.938;7.758;2022-11-04T11:21:13;15.10;70.80
28845;DHT22;15976;47.938;7.758;2022-11-04T11:23:45;15.10;70.10
28845;DHT22;15976;47.938;7.758;2022-11-04T11:26:29;14.90;70.50
28845;DHT22;15976;47.938;7.758;2022-11-04T11:28:59;14.90;71.00
28845;DHT22;15976;47.938;7.758;2022-11-04T11:31:36;15.00;71.40
28845;DHT22;15976;47.938;7.758;2022-11-04T11:34:19;15.00;71.30
28845;DHT22;15976;47.938;7.758;2022-11-04T11:36:47;15.00;71.50
28845;DHT22;15976;47.938;7.758;2022-11-04T11:39:36;15.10;72.00
28845;DHT22;15976;47.938;7.758;2022-11-04T11:42:43;15.20;72.00
28845;DHT22;15976;47.938;7.758;2022-11-04T11:50:41;15.20;71.60
28845;DHT22;15976;47.938;7.758;2022-11-04T12:04:09;15.20;71.70
28845;DHT22;15976;47.938;7.758;2022-11-04T12:08:07;15.30;72.00
28845;DHT22;15976;47.938;7.758;2022-11-04T12:37:07;15.80;72.00
28845;DHT22;15976;47.938;7.758;2022-11-04T12:47:35;15.60;70.50
28845;DHT22;15976;47.938;7.758;2022-11-04T13:00:27;15.40;70.90
28845;DHT22;15976;47.938;7.758;2022-11-04T13:03:23;15.30;71.20
28845;DHT22;15976;47.938;7.758;2022-11-04T13:09:48;15.30;70.10
28845;DHT22;15976;47.938;7.758;2022-11-04T13:12:45;15.30;70.10
28845;DHT22;15976;47.938;7.758;2022-11-04T13:15:47;15.30;70.10
28845;DHT22;15976;47.938;7.758;2022-11-04T13:18:36;15.30;70.20
28845;DHT22;15976;47.938;7.758;2022-11-04T13:21:26;15.30;69.80
28845;DHT22;15976;47.938;7.758;2022-11-04T13:24:10;15.20;69.30
28845;DHT22;15976;47.938;7.758;2022-11-04T13:26:40;15.20;69.20
28845;DHT22;15976;47.938;7.758;2022-11-04T13:29:15;15.30;68.90
28845;DHT22;15976;47.938;7.758;2022-11-04T13:32:11;15.30;68.50
28845;DHT22;15976;47.938;7.758;2022-11-04T13:35:07;15.30;68.70
28845;DHT22;15976;47.938;7.758;2022-11-04T13:37:43;15.20;68.40
28845;DHT22;15976;47.938;7.758;2022-11-04T13:40:21;15.10;68.10
28845;DHT22;15976;47.938;7.758;2022-11-04T13:43:24;15.10;68.20
28845;DHT22;15976;47.938;7.758;2022-11-04T13:46:33;15.00;68.10
28845;DHT22;15976;47.938;7.758;2022-11-04T13:59:35;14.80;68.60
28845;DHT22;15976;47.938;7.758;2022-11-04T14:04:45;14.70;68.50
28845;DHT22;15976;47.938;7.758;2022-11-04T14:07:14;14.70;68.50
28845;DHT22;15976;47.938;7.758;2022-11-04T14:21:10;14.50;69.10
28845;DHT22;15976;47.938;7.758;2022-11-04T14:26:27;14.40;69.00
28845;DHT22;15976;47.938;7.758;2022-11-04T14:29:22;14.40;69.00
28845;DHT22;15976;47.938;7.758;2022-11-04T14:37:24;14.40;69.70
28845;DHT22;15976;47.938;7.758;2022-11-04T14:40:05;14.40;70.20
28845;DHT22;15976;47.938;7.758;2022-11-04T14:42:47;14.50;70.30
28845;DHT22;15976;47.938;7.758;2022-11-04T14:45:27;14.50;70.00
28845;DHT22;15976;47.938;7.758;2022-11-04T14:48:10;14.50;69.90
28845;DHT22;15976;47.938;7.758;2022-11-04T14:50:45;14.50;69.90
28845;DHT22;15976;47.938;7.758;2022-11-04T14:53:18;14.50;69.90
28845;DHT22;15976;47.938;7.758;2022-11-04T14:56:02;14.40;69.80
28845;DHT22;15976;47.938;7.758;2022-11-04T14:58:32;14.40;70.00
28845;DHT22;15976;47.938;7.758;2022-11-04T15:01:01;14.40;70.00
28845;DHT22;15976;47.938;7.758;2022-11-04T15:03:35;14.30;69.90
28845;DHT22;15976;47.938;7.758;2022-11-04T15:09:39;14.30;69.80
28845;DHT22;15976;47.938;7.758;2022-11-04T15:12:12;14.20;69.80
28845;DHT22;15976;47.938;7.758;2022-11-04T15:14:58;14.20;69.70
28845;DHT22;15976;47.938;7.758;2022-11-04T15:17:29;14.10;69.40
28845;DHT22;15976;47.938;7.758;2022-11-04T15:20:00;14.10;69.20
28845;DHT22;15976;47.938;7.758;2022-11-04T15:22:29;14.00;69.10
28845;DHT22;15976;47.938;7.758;2022-11-04T15:25:04;13.90;69.00
28845;DHT22;15976;47.938;7.758;2022-11-04T15:27:47;13.80;69.00
28845;DHT22;15976;47.938;7.758;2022-11-04T15:31:41;13.70;69.10
28845;DHT22;15976;47.938;7.758;2022-11-04T15:35:29;13.70;69.20
28845;DHT22;15976;47.938;7.758;2022-11-04T15:38:41;13.50;69.20
28845;DHT22;15976;47.938;7.758;2022-11-04T15:41:10;13.40;69.00
28845;DHT22;15976;47.938;7.758;2022-11-04T15:44:05;13.40;69.20
28845;DHT22;15976;47.938;7.758;2022-11-04T15:46:33;13.30;69.40
28845;DHT22;15976;47.938;7.758;2022-11-04T15:49:02;13.30;69.60
28845;DHT22;15976;47.938;7.758;2022-11-04T15:51:40;13.30;69.80
28845;DHT22;15976;47.938;7.758;2022-11-04T15:54:19;13.20;69.80
28845;DHT22;15976;47.938;7.758;2022-11-04T15:56:55;13.20;70.10
28845;DHT22;15976;47.938;7.758;2022-11-04T15:59:33;13.20;70.20
28845;DHT22;15976;47.938;7.758;2022-11-04T16:02:43;13.10;70.30
28845;DHT22;15976;47.938;7.758;2022-11-04T16:07:46;13.10;70.40
28845;DHT22;15976;47.938;7.758;2022-11-04T16:10:29;13.10;70.70
28845;DHT22;15976;47.938;7.758;2022-11-04T16:18:27;13.00;71.10
28845;DHT22;15976;47.938;7.758;2022-11-04T16:20:56;13.10;71.30
28845;DHT22;15976;47.938;7.758;2022-11-04T16:23:26;13.00;71.00
28845;DHT22;15976;47.938;7.758;2022-11-04T16:26:02;13.00;71.10
28845;DHT22;15976;47.938;7.758;2022-11-04T16:28:36;13.00;71.40
28845;DHT22;15976;47.938;7.758;2022-11-04T16:33:48;13.00;71.40
28845;DHT22;15976;47.938;7.758;2022-11-04T16:36:16;12.90;72.10
28845;DHT22;15976;47.938;7.758;2022-11-04T16:41:26;12.80;71.60
28845;DHT22;15976;47.938;7.758;2022-11-04T16:43:54;12.80;71.70
28845;DHT22;15976;47.938;7.758;2022-11-04T16:46:21;12.80;71.70
28845;DHT22;15976;47.938;7.758;2022-11-04T16:48:49;12.80;71.80
28845;DHT22;15976;47.938;7.758;2022-11-04T16:51:22;12.70;71.80
28845;DHT22;15976;47.938;7.758;2022-11-04T16:53:49;12.70;71.90
28845;DHT22;15976;47.938;7.758;2022-11-04T16:56:22;12.70;71.60
28845;DHT22;15976;47.938;7.758;2022-11-04T16:58:51;12.60;71.80
28845;DHT22;15976;47.938;7.758;2022-11-04T17:01:18;12.60;72.00
28845;DHT22;15976;47.938;7.758;2022-11-04T17:03:47;12.60;72.20
28845;DHT22;15976;47.938;7.758;2022-11-04T17:06:15;12.60;72.30
28845;DHT22;15976;47.938;7.758;2022-11-04T17:08:42;12.60;72.40
28845;DHT22;15976;47.938;7.758;2022-11-04T17:11:10;12.60;72.60
28845;DHT22;15976;47.938;7.758;2022-11-04T17:13:37;12.60;72.60
28845;DHT22;15976;47.938;7.758;2022-11-04T17:16:06;12.60;72.70
28845;DHT22;15976;47.938;7.758;2022-11-04T17:18:34;12.60;72.80
28845;DHT22;15976;47.938;7.758;2022-11-04T17:21:05;12.60;73.00
28845;DHT22;15976;47.938;7.758;2022-11-04T17:23:33;12.70;73.20
28845;DHT22;15976;47.938;7.758;2022-11-04T17:26:00;12.60;73.00
28845;DHT22;15976;47.938;7.758;2022-11-04T17:28:27;12.70;73.10
28845;DHT22;15976;47.938;7.758;2022-11-04T17:30:54;12.60;73.10
28845;DHT22;15976;47.938;7.758;2022-11-04T17:33:21;12.60;73.80
28845;DHT22;15976;47.938;7.758;2022-11-04T17:35:49;12.60;73.10
28845;DHT22;15976;47.938;7.758;2022-11-04T17:38:17;12.60;73.00
28845;DHT22;15976;47.938;7.758;2022-11-04T17:40:45;12.50;72.90
28845;DHT22;15976;47.938;7.758;2022-11-04T17:43:31;12.50;73.00
28845;DHT22;15976;47.938;7.758;2022-11-04T17:46:16;12.40;73.10
28845;DHT22;15976;47.938;7.758;2022-11-04T17:51:30;12.30;73.60
28845;DHT22;15976;47.938;7.758;2022-11-04T17:53:57;12.30;73.70
28845;DHT22;15976;47.938;7.758;2022-11-04T17:56:25;12.20;73.70
28845;DHT22;15976;47.938;7.758;2022-11-04T17:58:52;12.20;74.00
28845;DHT22;15976;47.938;7.758;2022-11-04T18:01:21;12.10;74.20
28845;DHT22;15976;47.938;7.758;2022-11-04T18:03:50;12.10;74.20
28845;DHT22;15976;47.938;7.758;2022-11-04T18:06:20;12.00;74.30
28845;DHT22;15976;47.938;7.758;2022-11-04T18:08:47;12.00;74.40
28845;DHT22;15976;47.938;7.758;2022-11-04T18:11:15;12.00;74.60
28845;DHT22;15976;47.938;7.758;2022-11-04T18:14:00;12.00;75.10
28845;DHT22;15976;47.938;7.758;2022-11-04T18:16:28;12.00;74.80
28845;DHT22;15976;47.938;7.758;2022-11-04T18:18:59;12.00;74.80
28845;DHT22;15976;47.938;7.758;2022-11-04T18:21:27;12.00;74.90
28845;DHT22;15976;47.938;7.758;2022-11-04T18:23:54;12.00;75.00
28845;DHT22;15976;47.938;7.758;2022-11-04T18:26:35;12.00;75.10
28845;DHT22;15976;47.938;7.758;2022-11-04T18:29:30;12.00;75.20
28845;DHT22;15976;47.938;7.758;2022-11-04T18:32:08;12.00;75.10
28845;DHT22;15976;47.938;7.758;2022-11-04T18:34:57;12.00;75.40
28845;DHT22;15976;47.938;7.758;2022-11-04T18:37:32;11.90;75.50
28845;DHT22;15976;47.938;7.758;2022-11-04T18:40:20;11.90;75.60
28845;DHT22;15976;47.938;7.758;2022-11-04T18:42:47;11.80;75.70
28845;DHT22;15976;47.938;7.758;2022-11-04T18:45:14;11.90;75.80
28845;DHT22;15976;47.938;7.758;2022-11-04T18:47:41;11.90;75.80
28845;DHT22;15976;47.938;7.758;2022-11-04T18:50:09;11.80;75.80
28845;DHT22;15976;47.938;7.758;2022-11-04T18:52:36;11.80;75.80
28845;DHT22;15976;47.938;7.758;2022-11-04T18:55:03;11.80;75.90
28845;DHT22;15976;47.938;7.758;2022-11-04T18:57:30;11.80;75.80
28845;DHT22;15976;47.938;7.758;2022-11-04T18:59:57;11.80;75.60
28845;DHT22;15976;47.938;7.758;2022-11-04T19:02:31;11.80;75.60
28845;DHT22;15976;47.938;7.758;2022-11-04T19:04:58;11.80;75.70
28845;DHT22;15976;47.938;7.758;2022-11-04T19:07:28;11.80;76.50
28845;DHT22;15976;47.938;7.758;2022-11-04T19:09:58;11.70;75.70
28845;DHT22;15976;47.938;7.758;2022-11-04T19:12:25;11.70;75.70
28845;DHT22;15976;47.938;7.758;2022-11-04T19:15:13;11.70;75.60
28845;DHT22;15976;47.938;7.758;2022-11-04T19:17:49;11.70;75.50
28845;DHT22;15976;47.938;7.758;2022-11-04T19:20:19;11.70;75.80
28845;DHT22;15976;47.938;7.758;2022-11-04T19:22:47;11.70;75.80
28845;DHT22;15976;47.938;7.758;2022-11-04T19:25:14;11.70;75.80
28845;DHT22;15976;47.938;7.758;2022-11-04T19:27:41;11.70;75.80
28845;DHT22;15976;47.938;7.758;2022-11-04T19:30:08;11.60;75.60
28845;DHT22;15976;47.938;7.758;2022-11-04T19:32:36;11.60;75.60
28845;DHT22;15976;47.938;7.758;2022-11-04T19:35:03;11.60;75.60
28845;DHT22;15976;47.938;7.758;2022-11-04T19:37:30;11.60;75.70
28845;DHT22;15976;47.938;7.758;2022-11-04T19:39:59;11.60;75.70
28845;DHT22;15976;47.938;7.758;2022-11-04T19:42:26;11.50;75.80
28845;DHT22;15976;47.938;7.758;2022-11-04T19:45:11;11.50;75.80
28845;DHT22;15976;47.938;7.758;2022-11-04T19:47:43;11.50;75.80
28845;DHT22;15976;47.938;7.758;2022-11-04T19:50:10;11.50;76.20
28845;DHT22;15976;47.938;7.758;2022-11-04T19:52:38;11.50;76.10
28845;DHT22;15976;47.938;7.758;2022-11-04T19:55:05;11.60;76.20
28845;DHT22;15976;47.938;7.758;2022-11-04T19:57:33;11.50;76.10
28845;DHT22;15976;47.938;7.758;2022-11-04T20:00:01;11.50;76.10
28845;DHT22;15976;47.938;7.758;2022-11-04T20:02:37;11.50;75.90
28845;DHT22;15976;47.938;7.758;2022-11-04T20:05:05;11.50;75.90
28845;DHT22;15976;47.938;7.758;2022-11-04T20:07:32;11.50;75.90
28845;DHT22;15976;47.938;7.758;2022-11-04T20:09:59;11.50;76.10
28845;DHT22;15976;47.938;7.758;2022-11-04T20:12:27;11.50;76.20
28845;DHT22;15976;47.938;7.758;2022-11-04T20:15:12;11.50;76.00
28845;DHT22;15976;47.938;7.758;2022-11-04T20:17:39;11.50;76.00
28845;DHT22;15976;47.938;7.758;2022-11-04T20:20:07;11.40;75.90
28845;DHT22;15976;47.938;7.758;2022-11-04T20:22:34;11.40;76.00
28845;DHT22;15976;47.938;7.758;2022-11-04T20:25:01;11.40;76.00
28845;DHT22;15976;47.938;7.758;2022-11-04T20:27:29;11.50;76.20
28845;DHT22;15976;47.938;7.758;2022-11-04T20:29:57;11.40;76.00
28845;DHT22;15976;47.938;7.758;2022-11-04T20:32:38;11.40;76.00
28845;DHT22;15976;47.938;7.758;2022-11-04T20:35:09;11.40;75.80
28845;DHT22;15976;47.938;7.758;2022-11-04T20:37:52;11.30;75.60
28845;DHT22;15976;47.938;7.758;2022-11-04T20:40:29;11.30;75.60
28845;DHT22;15976;47.938;7.758;2022-11-04T20:43:12;11.30;75.70
28845;DHT22;15976;47.938;7.758;2022-11-04T20:46:07;11.30;75.70
28845;DHT22;15976;47.938;7.758;2022-11-04T20:48:43;11.20;75.70
28845;DHT22;15976;47.938;7.758;2022-11-04T20:51:52;11.20;75.90
28845;DHT22;15976;47.938;7.758;2022-11-04T20:54:33;11.30;76.10
28845;DHT22;15976;47.938;7.758;2022-11-04T20:57:02;11.20;76.20
28845;DHT22;15976;47.938;7.758;2022-11-04T20:59:36;11.20;76.60
28845;DHT22;15976;47.938;7.758;2022-11-04T21:02:10;11.20;76.50
28845;DHT22;15976;47.938;7.758;2022-11-04T21:04:38;11.30;76.60
28845;DHT22;15976;47.938;7.758;2022-11-04T21:07:05;11.30;76.60
28845;DHT22;15976;47.938;7.758;2022-11-04T21:09:33;11.30;76.70
28845;DHT22;15976;47.938;7.758;2022-11-04T21:12:18;11.30;76.60
28845;DHT22;15976;47.938;7.758;2022-11-04T21:18:59;11.30;76.70
28845;DHT22;15976;47.938;7.758;2022-11-04T21:21:52;11.30;76.80
28845;DHT22;15976;47.938;7.758;2022-11-04T21:24:45;11.30;76.90
28845;DHT22;15976;47.938;7.758;2022-11-04T21:27:42;11.30;77.00
28845;DHT22;15976;47.938;7.758;2022-11-04T21:30:13;11.30;77.00